Stolt Ami — 3EAZ5 — position and weather

sailwx.info

Track history (hours):
 
Tides and Currents Weather Stations Pressure Air Temp Water Temp Dewpoint Dewpoint Depression Visibility Wind Speed Wind Dir Waves Ship Positions

Stolt Ami

Last reported at 2016-Sep-16 03:33 UTC. Time now 2016-Sep-25 05:31 UTC.
Position N 29°30' W 094°52'.
Warning: this ship's position is 9 days out of date.

Length 143 m; draft 9.1 m.

Type: Ship (hazmat cat B). MMSI: 371392514.

Date/timePositionNaut miles runAvg speedWind from/ knotsBaromVisibWave heightAir tempDewpointWater temp
2016-Sep-16 03:33N 29°30' W 094°52'1111.3
2016-Sep-16 02:32N 29°40' W 094°59'3 0.1
2016-Sep-14 13:33N 29°37' W 094°58'2 2.1
2016-Sep-14 12:23N 29°37' W 095°01'0 0.0
2016-Sep-14 09:29N 29°37' W 095°01'0 0.0
2016-Sep-14 08:32N 29°37' W 095°01'0 0.0
2016-Sep-14 07:08N 29°37' W 095°01'0 0.0
2016-Sep-14 06:17N 29°37' W 095°01'0 0.0
2016-Sep-13 22:32N 29°37' W 095°01'0 0.0
2016-Sep-13 18:20N 29°37' W 095°01'0 0.0
2016-Sep-13 17:29N 29°37' W 095°01'0 0.0
2016-Sep-13 11:17N 29°37' W 095°01'0 0.0
2016-Sep-13 07:32N 29°37' W 095°01'0 0.0
2016-Sep-13 06:05N 29°37' W 095°01'0 0.0
2016-Sep-13 04:20N 29°37' W 095°01'0 0.0
2016-Sep-13 02:08N 29°37' W 095°01'0 0.0
2016-Sep-12 23:32N 29°37' W 095°01'0 0.0
2016-Sep-12 21:26N 29°37' W 095°01'0 0.0
2016-Sep-12 19:23N 29°37' W 095°01'0 0.0
2016-Sep-12 17:32N 29°37' W 095°01'0 0.0
2016-Sep-12 13:17N 29°37' W 095°01'0 0.0
2016-Sep-12 11:29N 29°37' W 095°01'0 0.0
2016-Sep-12 10:20N 29°37' W 095°01'0 0.0
2016-Sep-12 07:23N 29°37' W 095°01'3 3.8
2016-Sep-12 06:32N 29°37' W 094°57'4 1.3
2016-Sep-12 03:29N 29°41' W 094°59'0 0.0
2016-Sep-12 01:26N 29°41' W 094°59'0 0.0
2016-Sep-11 22:32N 29°41' W 094°59'0 0.0
2016-Sep-11 21:05N 29°41' W 094°59'0 0.0
2016-Sep-11 20:26N 29°41' W 094°59'0 0.0
2016-Sep-11 19:23N 29°41' W 094°59'0 0.0
2016-Sep-11 18:26N 29°41' W 094°59'0 0.0
2016-Sep-11 17:29N 29°41' W 094°59'0 0.0
2016-Sep-11 16:29N 29°41' W 094°59'0 0.0
2016-Sep-11 15:32N 29°41' W 094°59'0 0.0
2016-Sep-11 14:32N 29°41' W 094°59'0 0.0
2016-Sep-11 13:32N 29°41' W 094°59'0 0.0
2016-Sep-11 12:29N 29°41' W 094°59'0 0.0
2016-Sep-11 11:29N 29°41' W 094°59'0 0.0
2016-Sep-11 10:23N 29°41' W 094°59'0 0.0
2016-Sep-11 08:32N 29°41' W 094°59'0 0.0
2016-Sep-11 07:29N 29°41' W 094°59'0 0.0
2016-Sep-11 03:17N 29°41' W 094°59'0 0.0
2016-Sep-11 02:29N 29°41' W 094°59'0 0.0
2016-Sep-11 01:32N 29°41' W 094°59'0 0.0
2016-Sep-10 22:29N 29°41' W 094°59'0 0.0
2016-Sep-10 21:17N 29°41' W 094°59'0 0.0
2016-Sep-10 20:29N 29°41' W 094°59'0 0.0
2016-Sep-10 19:32N 29°41' W 094°59'0 0.0
2016-Sep-10 18:14N 29°41' W 094°59'0 0.0
2016-Sep-10 17:32N 29°41' W 094°59'0 0.0
2016-Sep-10 16:32N 29°41' W 094°59'0 0.0
2016-Sep-10 15:29N 29°41' W 094°59'0 0.0
2016-Sep-10 14:05N 29°41' W 094°59'0 0.0
2016-Sep-10 13:23N 29°41' W 094°59'0 0.0
2016-Sep-10 12:32N 29°41' W 094°59'0 0.0
2016-Sep-10 11:20N 29°41' W 094°59'0 0.0
2016-Sep-10 10:26N 29°41' W 094°59'0 0.0
2016-Sep-10 09:32N 29°41' W 094°59'0 0.0
2016-Sep-10 08:32N 29°41' W 094°59'0 0.0
2016-Sep-10 07:32N 29°41' W 094°59'0 0.0
2016-Sep-10 06:23N 29°41' W 094°59'0 0.0
2016-Sep-10 05:32N 29°41' W 094°59'0 0.0
2016-Sep-10 04:29N 29°41' W 094°59'0 0.0
2016-Sep-10 03:23N 29°41' W 094°59'0 0.0
2016-Sep-10 02:29N 29°41' W 094°59'0 0.0
2016-Sep-09 23:14N 29°41' W 094°59'0 0.0
2016-Sep-09 22:32N 29°41' W 094°59'0 0.0
2016-Sep-09 21:26N 29°41' W 094°59'0 0.0
2016-Sep-09 20:32N 29°41' W 094°59'0 0.0
2016-Sep-09 19:32N 29°41' W 094°59'0 0.0
2016-Sep-09 18:26N 29°41' W 094°59'0 0.0
2016-Sep-09 17:23N 29°41' W 094°59'0 0.0
2016-Sep-09 14:29N 29°41' W 094°59'0 0.0
2016-Sep-09 13:29N 29°41' W 094°59'4 4.5
2016-Sep-09 12:31N 29°37' W 094°57'1313.6
2016-Sep-09 11:33N 29°25' W 094°50'  
Track history (hours):
 
Tides and Currents Weather Stations Pressure Air Temp Water Temp Dewpoint Dewpoint Depression Visibility Wind Speed Wind Dir Waves Ship Positions

Stolt Ami

Last reported at 2016-Sep-16 03:33 UTC. Time now 2016-Sep-25 05:31 UTC.
Position N 29°30' W 094°52'.
Warning: this ship's position is 9 days out of date.

Length 143 m; draft 9.1 m.

Type: Ship (hazmat cat B). MMSI: 371392514.

Date/timePositionNaut miles runAvg speedWind from/ knotsBaromVisibWave heightAir tempDewpointWater temp
2016-Sep-16 03:33N 29°30' W 094°52'1111.3
2016-Sep-16 02:32N 29°40' W 094°59'3 0.1
2016-Sep-14 13:33N 29°37' W 094°58'2 2.1
2016-Sep-14 12:23N 29°37' W 095°01'0 0.0
2016-Sep-14 09:29N 29°37' W 095°01'0 0.0
2016-Sep-14 08:32N 29°37' W 095°01'0 0.0
2016-Sep-14 07:08N 29°37' W 095°01'0 0.0
2016-Sep-14 06:17N 29°37' W 095°01'0 0.0
2016-Sep-13 22:32N 29°37' W 095°01'0 0.0
2016-Sep-13 18:20N 29°37' W 095°01'0 0.0
2016-Sep-13 17:29N 29°37' W 095°01'0 0.0
2016-Sep-13 11:17N 29°37' W 095°01'0 0.0
2016-Sep-13 07:32N 29°37' W 095°01'0 0.0
2016-Sep-13 06:05N 29°37' W 095°01'0 0.0
2016-Sep-13 04:20N 29°37' W 095°01'0 0.0
2016-Sep-13 02:08N 29°37' W 095°01'0 0.0
2016-Sep-12 23:32N 29°37' W 095°01'0 0.0
2016-Sep-12 21:26N 29°37' W 095°01'0 0.0
2016-Sep-12 19:23N 29°37' W 095°01'0 0.0
2016-Sep-12 17:32N 29°37' W 095°01'0 0.0
2016-Sep-12 13:17N 29°37' W 095°01'0 0.0
2016-Sep-12 11:29N 29°37' W 095°01'0 0.0
2016-Sep-12 10:20N 29°37' W 095°01'0 0.0
2016-Sep-12 07:23N 29°37' W 095°01'3 3.8
2016-Sep-12 06:32N 29°37' W 094°57'4 1.3
2016-Sep-12 03:29N 29°41' W 094°59'0 0.0
2016-Sep-12 01:26N 29°41' W 094°59'0 0.0
2016-Sep-11 22:32N 29°41' W 094°59'0 0.0
2016-Sep-11 21:05N 29°41' W 094°59'0 0.0
2016-Sep-11 20:26N 29°41' W 094°59'0 0.0
2016-Sep-11 19:23N 29°41' W 094°59'0 0.0
2016-Sep-11 18:26N 29°41' W 094°59'0 0.0
2016-Sep-11 17:29N 29°41' W 094°59'0 0.0
2016-Sep-11 16:29N 29°41' W 094°59'0 0.0
2016-Sep-11 15:32N 29°41' W 094°59'0 0.0
2016-Sep-11 14:32N 29°41' W 094°59'0 0.0
2016-Sep-11 13:32N 29°41' W 094°59'0 0.0
2016-Sep-11 12:29N 29°41' W 094°59'0 0.0
2016-Sep-11 11:29N 29°41' W 094°59'0 0.0
2016-Sep-11 10:23N 29°41' W 094°59'0 0.0
2016-Sep-11 08:32N 29°41' W 094°59'0 0.0
2016-Sep-11 07:29N 29°41' W 094°59'0 0.0
2016-Sep-11 03:17N 29°41' W 094°59'0 0.0
2016-Sep-11 02:29N 29°41' W 094°59'0 0.0
2016-Sep-11 01:32N 29°41' W 094°59'0 0.0
2016-Sep-10 22:29N 29°41' W 094°59'0 0.0
2016-Sep-10 21:17N 29°41' W 094°59'0 0.0
2016-Sep-10 20:29N 29°41' W 094°59'0 0.0
2016-Sep-10 19:32N 29°41' W 094°59'0 0.0
2016-Sep-10 18:14N 29°41' W 094°59'0 0.0
2016-Sep-10 17:32N 29°41' W 094°59'0 0.0
2016-Sep-10 16:32N 29°41' W 094°59'0 0.0
2016-Sep-10 15:29N 29°41' W 094°59'0 0.0
2016-Sep-10 14:05N 29°41' W 094°59'0 0.0
2016-Sep-10 13:23N 29°41' W 094°59'0 0.0
2016-Sep-10 12:32N 29°41' W 094°59'0 0.0
2016-Sep-10 11:20N 29°41' W 094°59'0 0.0
2016-Sep-10 10:26N 29°41' W 094°59'0 0.0
2016-Sep-10 09:32N 29°41' W 094°59'0 0.0
2016-Sep-10 08:32N 29°41' W 094°59'0 0.0
2016-Sep-10 07:32N 29°41' W 094°59'0 0.0
2016-Sep-10 06:23N 29°41' W 094°59'0 0.0
2016-Sep-10 05:32N 29°41' W 094°59'0 0.0
2016-Sep-10 04:29N 29°41' W 094°59'0 0.0
2016-Sep-10 03:23N 29°41' W 094°59'0 0.0
2016-Sep-10 02:29N 29°41' W 094°59'0 0.0
2016-Sep-09 23:14N 29°41' W 094°59'0 0.0
2016-Sep-09 22:32N 29°41' W 094°59'0 0.0
2016-Sep-09 21:26N 29°41' W 094°59'0 0.0
2016-Sep-09 20:32N 29°41' W 094°59'0 0.0
2016-Sep-09 19:32N 29°41' W 094°59'0 0.0
2016-Sep-09 18:26N 29°41' W 094°59'0 0.0
2016-Sep-09 17:23N 29°41' W 094°59'0 0.0
2016-Sep-09 14:29N 29°41' W 094°59'0 0.0
2016-Sep-09 13:29N 29°41' W 094°59'4 4.5
2016-Sep-09 12:31N 29°37' W 094°57'1313.6
2016-Sep-09 11:33N 29°25' W 094°50'  

Dump ship's entire track history